createdAt,value
2023-09-21T00:11:57.886Z,16.2
2023-09-21T00:23:57.753Z,16.3
2023-09-21T00:35:57.813Z,16.4
2023-09-21T00:47:58.005Z,15.8
2023-09-21T00:59:57.792Z,15.7
2023-09-21T01:11:57.890Z,15.4
2023-09-21T01:23:57.906Z,15.3
2023-09-21T01:35:57.879Z,15.3
2023-09-21T01:47:57.972Z,15.3
2023-09-21T01:59:57.812Z,15.2
2023-09-21T02:11:57.817Z,15.1
2023-09-21T02:23:57.857Z,15.1
2023-09-21T02:35:57.839Z,15.2
2023-09-21T02:47:57.882Z,15.2
2023-09-21T02:59:57.904Z,15.3
2023-09-21T03:11:57.771Z,15.3
2023-09-21T03:23:57.916Z,15.2
2023-09-21T03:35:57.880Z,15.2
2023-09-21T03:47:57.896Z,14.9
2023-09-21T03:59:57.756Z,14.5
2023-09-21T04:11:57.762Z,14.5
2023-09-21T04:23:57.865Z,14.1
2023-09-21T04:35:57.919Z,14.2
2023-09-21T04:47:57.963Z,14.7
2023-09-21T04:59:57.758Z,15.0
2023-09-21T05:11:57.846Z,14.9
2023-09-21T05:23:57.817Z,14.8
2023-09-21T05:35:57.910Z,14.9
2023-09-21T05:47:57.904Z,15.0
2023-09-21T05:59:57.774Z,15.4
2023-09-21T06:11:57.915Z,16.5
2023-09-21T06:23:57.855Z,17.1
2023-09-21T06:35:57.869Z,17.7
2023-09-21T06:47:57.906Z,17.8
2023-09-21T06:59:57.814Z,18.3
2023-09-21T07:11:58.212Z,18.7
2023-09-21T07:23:57.781Z,19.3
2023-09-21T07:35:57.782Z,19.7
2023-09-21T07:47:57.903Z,20.3
2023-09-21T07:59:57.844Z,20.2
2023-09-21T08:11:57.823Z,19.9
2023-09-21T08:23:57.865Z,19.4
2023-09-21T08:35:57.938Z,19.6
2023-09-21T08:47:58.101Z,19.6
2023-09-21T08:59:57.833Z,19.5
2023-09-21T09:11:57.903Z,19.4
2023-09-21T09:23:57.888Z,19.3
2023-09-21T09:35:57.766Z,19.7
2023-09-21T09:47:58.118Z,19.7
2023-09-21T09:59:57.809Z,20.1
2023-09-21T10:11:57.873Z,20.0
2023-09-21T10:23:57.757Z,20.3
2023-09-21T10:35:58.047Z,20.0
2023-09-21T10:47:57.891Z,20.2
2023-09-21T11:00:11.280Z,20.0
2023-09-21T11:11:57.879Z,20.2
2023-09-21T11:23:57.917Z,20.3
2023-09-21T11:35:57.854Z,20.1
2023-09-21T11:47:58.417Z,20.5
2023-09-21T11:59:57.866Z,20.7
2023-09-21T12:11:57.846Z,20.8
2023-09-21T12:23:57.856Z,20.6
2023-09-21T12:35:57.838Z,20.6
2023-09-21T12:47:57.849Z,21.0
2023-09-21T12:59:57.742Z,21.2
2023-09-21T13:11:57.827Z,21.3
2023-09-21T13:23:57.858Z,21.3
2023-09-21T13:35:57.931Z,21.3
2023-09-21T13:47:58.177Z,20.9
2023-09-21T13:59:57.759Z,20.9
2023-09-21T14:11:57.783Z,20.7
2023-09-21T14:23:57.858Z,20.5
2023-09-21T14:35:57.762Z,20.5
2023-09-21T14:47:57.748Z,20.5
2023-09-21T14:59:57.742Z,20.5
2023-09-21T15:11:57.802Z,20.9
2023-09-21T15:23:58.474Z,21.1
2023-09-21T15:35:58.308Z,21.0
2023-09-21T15:47:57.816Z,20.6
2023-09-21T15:59:57.756Z,20.3
2023-09-21T16:11:57.757Z,20.1
2023-09-21T16:23:57.793Z,19.6
2023-09-21T16:35:57.831Z,18.9
2023-09-21T16:47:57.785Z,18.0
2023-09-21T16:59:57.751Z,17.8
2023-09-21T17:11:57.857Z,16.1
2023-09-21T17:23:57.731Z,15.9
2023-09-21T17:35:57.822Z,15.5
2023-09-21T17:47:57.925Z,15.4
2023-09-21T17:59:57.851Z,15.4
2023-09-21T18:11:57.791Z,15.2
2023-09-21T18:23:57.737Z,15.0
2023-09-21T18:35:57.868Z,15.0
2023-09-21T18:47:57.917Z,15.0
2023-09-21T18:59:57.840Z,15.0
2023-09-21T19:11:57.736Z,15.1
2023-09-21T19:23:57.842Z,14.6
2023-09-21T19:36:00.784Z,14.4
2023-09-21T19:47:57.862Z,13.9
2023-09-21T19:59:57.734Z,13.7
2023-09-21T20:11:57.857Z,13.8
2023-09-21T20:23:57.866Z,13.7
2023-09-21T20:35:57.857Z,13.9
2023-09-21T20:47:57.936Z,14.5
2023-09-21T20:59:57.737Z,14.3
2023-09-21T21:11:57.861Z,14.2
2023-09-21T21:23:57.806Z,13.9
2023-09-21T21:35:57.869Z,13.9
2023-09-21T21:47:57.806Z,13.8
2023-09-21T21:59:57.746Z,13.9
2023-09-21T22:11:57.840Z,13.9
2023-09-21T22:23:58.103Z,13.9
2023-09-21T22:35:57.763Z,13.8
2023-09-21T22:47:57.855Z,13.7
2023-09-21T22:59:57.867Z,13.7
2023-09-21T23:11:57.854Z,13.6
2023-09-21T23:23:57.808Z,13.6
2023-09-21T23:35:59.867Z,13.6
2023-09-21T23:47:57.762Z,13.5
2023-09-21T23:59:57.752Z,13.3
